Latest Coastal Weather Observations for Rundle Island

IDQ60701

Issued at 12:11 am EST Wednesday 22 February 2017 (issued every 10 minutes, with the page automatically refreshed every 10 minutes)

About coastal observations | Map of coastal stations | Coastal observations for QLD | Marine services | Other Formats
Station Details ID: 039322 Name: RUNDLE ISLAND Lat: -23.53 Lon: 151.28 Height: 19.8 m
Data from the previous 72 hours. | See also: Recent months at Rundle Island
Date/Time
EST
Temp
°C
Wind Pressure Rain since
9am
mm
Weather Cloud Vis
km
Sea
Height
m
Swell
Dir  Spd
kts
Gust
kts
hPa Trend Height
m
Period
s
Dir
22/12:00am 27.5 ESE 21 24 1014.6 - - - - - - - - -
 
Date/Time
EST
Temp
°C
Wind Pressure Rain since
9am
mm
Weather Cloud Vis
km
Sea
Height
m
Swell
Dir  Spd
kts
Gust
kts
hPa Trend Height
m
Period
s
Dir
21/11:30pm 27.7 ESE 22 26 1014.6 - - - - - - - - -
21/11:00pm 27.6 ESE 20 23 1014.6 - - - - - - - - -
21/10:30pm 27.7 ESE 21 23 1014.7 - - - - - - - - -
21/10:00pm 27.8 ESE 19 22 1014.7 - - - - - - - - -
21/09:30pm 27.7 ESE 19 23 1014.6 - - - - - - - - -
21/09:00pm 27.7 ESE 18 20 1014.9 - - - - - - - - -
21/08:30pm 27.7 ESE 18 20 1014.6 - - - - - - - - -
21/08:00pm 27.8 ESE 19 21 1014.3 - - - - - - - - -
21/07:30pm 27.9 ESE 18 20 1013.9 - - - - - - - - -
21/07:00pm 27.8 ESE 17 20 1013.6 - - - - - - - - -
21/06:30pm 27.7 ESE 15 17 1013.6 - - - - - - - - -
21/06:00pm 27.9 ESE 17 19 1013.1 - - - - - - - - -
21/05:30pm 28.0 E 17 19 1012.6 - - - - - - - - -
21/05:00pm 28.3 E 17 19 1012.4 - - - - - - - - -
21/04:30pm 28.1 E 17 20 1012.4 - - - - - - - - -
21/04:00pm 28.2 E 16 19 1012.4 - - - - - - - - -
21/03:30pm 28.0 E 15 18 1012.4 - - - - - - - - -
21/03:00pm 28.5 ESE 15 17 1012.4 - - - - - - - - -
21/02:30pm 28.7 E 15 17 1012.5 - - - - - - - - -
21/02:00pm 28.6 E 16 17 1012.7 - - - - - - - - -
21/01:30pm 28.9 ESE 16 19 1013.1 - - - - - - - - -
21/01:00pm 28.3 ESE 15 17 1013.4 - - - - - - - - -
21/12:30pm 28.3 ESE 15 18 1013.6 - - - - - - - - -
21/12:00pm 28.4 ESE 15 17 1014.0 - - - - - - - - -
21/11:30am 28.1 ESE 15 17 1014.1 - - - - - - - - -
21/11:00am 27.9 SE 14 16 1014.3 - - - - - - - - -
21/10:30am 27.9 SE 13 16 1014.6 - - - - - - - - -
21/10:00am 27.7 SE 12 15 1014.6 - - - - - - - - -
21/09:30am 27.5 SE 14 16 1014.6 - - - - - - - - -
21/09:00am 27.6 SE 12 14 1014.4 - - - - - - - - -
21/08:30am 26.9 SSE 13 15 1014.3 - - - - - - - - -
21/08:00am 26.8 SE 14 16 1014.0 - - - - - - - - -
21/07:30am 27.0 SE 14 15 1013.9 - - - - - - - - -
21/07:00am 26.8 SE 14 16 1013.6 - - - - - - - - -
21/06:30am 26.7 SSE 14 15 1013.2 - - - - - - - - -
21/06:00am 27.0 SSE 15 17 1012.7 - - - - - - - - -
21/05:30am 27.2 SSE 6 8 1012.6 - - - - - - - - -
21/05:00am 27.4 S 8 9 1012.3 - - - - - - - - -
21/04:30am 27.2 SSE 8 10 1011.9 - - - - - - - - -
21/04:00am 27.3 S 11 13 1011.6 - - - - - - - - -
21/03:30am 27.1 S 9 10 1011.2 - - - - - - - - -
21/03:00am 27.2 SSW 7 8 1011.1 - - - - - - - - -
21/02:30am 27.5 S 6 7 1011.1 - - - - - - - - -
21/02:00am 27.5 S 6 7 1011.2 - - - - - - - - -
21/01:30am 27.6 S 6 7 1011.4 - - - - - - - - -
21/01:00am 27.4 S 5 6 1011.5 - - - - - - - - -
21/12:30am 27.5 S 3 4 1011.8 - - - - - - - - -
21/12:00am 27.5 SW 3 4 1012.0 - - - - - - - - -
 
Date/Time
EST
Temp
°C
Wind Pressure Rain since
9am
mm
Weather Cloud Vis
km
Sea
Height
m
Swell
Dir  Spd
kts
Gust
kts
hPa Trend Height
m
Period
s
Dir
20/11:00pm 28.1 NW 4 - 1011.9 - - - - - - - - -
20/09:00pm 28.2 N 4 5 1011.7 - - - - - - - - -
20/08:30pm 28.1 N 5 6 1011.4 - - - - - - - - -
20/08:00pm 28.1 N 5 7 1011.2 - - - - - - - - -
20/07:30pm 28.1 NNE 7 9 1010.8 - - - - - - - - -
20/07:00pm 27.8 NE 6 7 1010.5 - - - - - - - - -
20/06:30pm 27.8 NE 8 9 1010.1 - - - - - - - - -
20/06:00pm 28.3 NNE 9 10 1009.5 - - - - - - - - -
20/05:30pm 28.1 NE 11 13 1008.8 - - - - - - - - -
20/05:00pm 28.4 NE 10 12 1008.5 - - - - - - - - -
20/04:30pm 28.5 NE 12 14 1008.2 - - - - - - - - -
20/04:00pm 28.5 ENE 12 13 1008.0 - - - - - - - - -
20/03:30pm 28.7 ENE 13 14 1007.9 - - - - - - - - -
20/03:00pm 29.0 ENE 11 13 1008.1 - - - - - - - - -
20/02:30pm 28.9 ENE 10 12 1008.4 - - - - - - - - -
20/02:00pm 29.4 ENE 10 12 1008.7 - - - - - - - - -
20/01:30pm 29.2 E 10 12 1008.9 - - - - - - - - -
20/01:00pm 29.2 E 10 12 1009.3 - - - - - - - - -
20/12:30pm 29.0 E 10 12 1009.6 - - - - - - - - -
20/12:00pm 29.2 ESE 11 12 1009.9 - - - - - - - - -
20/11:30am 28.8 ESE 11 13 1010.2 - - - - - - - - -
20/11:00am 29.0 ESE 10 11 1010.4 - - - - - - - - -
20/10:30am 28.2 SE 10 11 1010.5 - - - - - - - - -
20/10:00am 27.9 SSE 10 11 1010.7 - - - - - - - - -
20/09:30am 28.1 SSE 9 10 1010.7 - - - - - - - - -
20/09:00am 27.9 S 9 10 1010.7 - - - - - - - - -
20/08:30am 28.0 SSE 8 9 1010.5 - - - - - - - - -
20/08:00am 27.5 SSE 6 7 1010.4 - - - - - - - - -
20/07:30am 27.0 SSW 5 6 1010.0 - - - - - - - - -
20/07:00am 26.1 SW 5 6 1009.7 - - - - - - - - -
20/06:30am 25.9 WSW 7 8 1009.6 - - - - - - - - -
20/06:00am 26.0 WSW 8 9 1009.2 - - - - - - - - -
20/05:30am 25.8 WSW 8 9 1008.7 - - - - - - - - -
20/05:00am 25.9 WSW 8 9 1008.4 - - - - - - - - -
20/04:30am 26.2 WSW 9 11 1008.0 - - - - - - - - -
20/04:00am 25.9 W 8 9 1007.9 - - - - - - - - -
20/03:30am 25.9 W 7 8 1007.9 - - - - - - - - -
20/03:00am 25.7 W 7 9 1007.8 - - - - - - - - -
20/02:30am 25.7 W 8 10 1008.0 - - - - - - - - -
20/02:00am 26.0 W 7 9 1008.0 - - - - - - - - -
20/01:30am 25.9 W 8 11 1008.3 - - - - - - - - -
20/01:00am 26.3 W 8 10 1008.6 - - - - - - - - -
20/12:30am 26.6 NW 9 10 1008.6 - - - - - - - - -
20/12:00am 26.8 NNW 8 9 1008.6 - - - - - - - - -
 
Date/Time
EST
Temp
°C
Wind Pressure Rain since
9am
mm
Weather Cloud Vis
km
Sea
Height
m
Swell
Dir  Spd
kts
Gust
kts
hPa Trend Height
m
Period
s
Dir
19/11:30pm 26.7 WNW 3 4 1008.5 - - - - - - - - -
19/11:00pm 26.8 WNW 3 5 1008.8 - - - - - - - - -
19/10:30pm 26.8 WNW 6 8 1008.9 - - - - - - - - -
19/10:00pm 27.1 WNW 8 9 1009.1 - - - - - - - - -
19/09:30pm 27.9 NW 11 14 1008.9 - - - - - - - - -
19/09:00pm 28.0 N 16 18 1008.5 - - - - - - - - -
19/08:30pm 28.2 N 14 17 1007.9 - - - - - - - - -
19/08:00pm 27.9 N 15 17 1007.4 - - - - - - - - -
19/07:30pm 27.8 NNW 14 16 1007.4 - - - - - - - - -
19/07:00pm 28.1 NNW 14 16 1007.3 - - - - - - - - -
19/06:30pm 28.1 NNW 15 18 1007.0 - - - - - - - - -
19/06:00pm 28.0 N 15 18 1006.5 - - - - - - - - -
19/05:30pm 27.8 N 15 17 1006.2 - - - - - - - - -
19/05:00pm 27.8 N 17 19 1005.7 - - - - - - - - -
19/04:30pm 27.8 N 15 17 1005.6 - - - - - - - - -
19/04:00pm 27.7 N 14 16 1005.5 - - - - - - - - -
19/03:30pm 28.1 NNE 12 14 1005.8 - - - - - - - - -
19/03:00pm 27.8 N 11 13 1006.4 - - - - - - - - -
19/02:30pm 27.8 N 9 11 1006.9 - - - - - - - - -
19/02:00pm 27.8 N 9 11 1007.3 - - - - - - - - -
19/01:30pm 28.0 NNW 9 12 1007.6 - - - - - - - - -
19/01:00pm 28.2 NNW 11 13 1007.9 - - - - - - - - -
19/12:30pm 27.7 NNW 11 13 1008.1 - - - - - - - - -
19/12:00pm 28.1 NNW 11 13 1008.6 - - - - - - - - -
19/11:30am 28.1 NNW 11 13 1008.8 - - - - - - - - -
19/11:00am 28.1 NNW 11 13 1009.1 - - - - - - - - -
19/10:30am 27.6 NNW 11 14 1009.3 - - - - - - - - -
19/10:00am 27.4 N 10 12 1009.4 - - - - - - - - -
19/09:30am 27.4 N 11 13 1009.2 - - - - - - - - -
19/09:00am 27.4 N 11 13 1009.2 - - - - - - - - -
19/08:30am 27.3 NNE 12 14 1009.0 - - - - - - - - -
19/08:00am 27.4 NE 7 9 1009.2 - - - - - - - - -
19/07:30am 27.8 NE 7 9 1009.1 - - - - - - - - -
19/07:00am 27.4 ENE 5 6 1009.0 - - - - - - - - -
19/06:30am 27.0 ENE 5 6 1008.9 - - - - - - - - -
19/06:00am 26.5 CALM 0 0 1008.8 - - - - - - - - -
19/05:30am 26.2 CALM 0 0 1008.8 - - - - - - - - -
19/05:00am 26.1 SSW 2 3 1008.9 - - - - - - - - -
19/04:30am 25.9 SW 5 6 1008.9 - - - - - - - - -
19/04:00am 25.9 WSW 7 9 1009.0 - - - - - - - - -
19/03:00am 25.9 WSW 8 - 1008.9 - - - - - - - - -
19/02:30am 27.3 NW 9 11 1009.2 - - - - - - - - -
19/02:00am 27.2 NNW 9 11 1009.1 - - - - - - - - -
19/01:30am 27.0 N 11 14 1008.8 - - - - - - - - -
19/01:00am 27.1 N 10 13 1009.1 - - - - - - - - -
19/12:30am 27.0 N 11 13 1009.3 - - - - - - - - -

Other Formats:

Comma delimited format used in spreadsheet applications
http://www.bom.gov.au/fwo/IDQ60701/IDQ60701.94378.axf

JavaScript Object Notation format (JSON) in row-major order
http://www.bom.gov.au/fwo/IDQ60701/IDQ60701.94378.json